Time;durP1;ratioP1;P1;durP2;ratioP2;P2;SDS_P1;SDS_P2;PMS_P1;PMS_P2;Temp;Humidity;BMP_temperature;BMP_pressure;BME280_temperature;BME280_humidity;BME280_pressure;Samples;Min_cycle;Max_cycle;Signal;HPM_P1;HPM_P2
2023/08/25 00:00:28;;;;;;;11.90;10.80;;;21.30;99.90;;;;;;5048297;28;20366;-74
2023/08/25 00:02:54;;;;;;;11.80;10.70;;;21.30;99.90;;;;;;5048210;28;20099;-74
2023/08/25 00:05:20;;;;;;;10.82;9.85;;;21.30;99.90;;;;;;5048643;28;20021;-75
2023/08/25 00:07:45;;;;;;;12.50;11.38;;;21.20;99.90;;;;;;5048799;28;20397;-74
2023/08/25 00:10:11;;;;;;;10.75;9.65;;;21.20;99.90;;;;;;5048030;28;20437;-74
2023/08/25 00:12:36;;;;;;;10.85;9.75;;;21.20;99.90;;;;;;5048292;28;20025;-75
2023/08/25 00:15:03;;;;;;;11.77;10.77;;;21.20;99.90;;;;;;5048385;28;20024;-75
2023/08/25 00:17:28;;;;;;;13.02;11.82;;;21.10;99.90;;;;;;5049545;28;20033;-74
2023/08/25 00:19:54;;;;;;;13.90;12.60;;;21.10;99.90;;;;;;5046777;28;20056;-74
2023/08/25 00:22:20;;;;;;;13.25;12.07;;;21.10;99.90;;;;;;5049405;28;20017;-74
2023/08/25 00:24:45;;;;;;;13.95;12.65;;;21.10;99.90;;;;;;5049028;28;20428;-75
2023/08/25 00:27:11;;;;;;;11.90;10.93;;;21.00;99.90;;;;;;5049204;28;20017;-74
2023/08/25 00:29:37;;;;;;;12.25;11.05;;;21.00;99.90;;;;;;5048787;28;20427;-74
2023/08/25 00:32:03;;;;;;;15.02;13.73;;;21.00;99.90;;;;;;5049317;28;20032;-74
2023/08/25 00:34:28;;;;;;;13.32;12.13;;;21.00;99.90;;;;;;5048538;28;20021;-74
2023/08/25 00:36:54;;;;;;;12.68;11.68;;;21.00;99.90;;;;;;5056459;28;20091;-74
2023/08/25 00:39:19;;;;;;;11.25;10.43;;;20.90;99.90;;;;;;5067624;28;20033;-74
2023/08/25 00:41:45;;;;;;;12.65;11.45;;;20.90;99.90;;;;;;5067327;28;20032;-75
2023/08/25 00:44:11;;;;;;;11.10;10.23;;;20.90;99.90;;;;;;5067333;28;20017;-75
2023/08/25 00:46:37;;;;;;;13.73;12.43;;;20.90;99.90;;;;;;5065178;28;20542;-74
2023/08/25 00:49:03;;;;;;;14.85;13.35;;;20.90;99.90;;;;;;5066903;28;20031;-74
2023/08/25 00:51:29;;;;;;;16.40;15.10;;;20.80;99.90;;;;;;5049431;28;20060;-74
2023/08/25 00:53:55;;;;;;;14.93;13.75;;;20.80;99.90;;;;;;5059106;28;20052;-74
2023/08/25 00:56:21;;;;;;;15.98;14.68;;;20.80;99.90;;;;;;5065498;28;20108;-75
2023/08/25 00:58:46;;;;;;;14.50;13.30;;;20.80;99.90;;;;;;5055741;28;20113;-74
2023/08/25 01:01:13;;;;;;;14.88;13.73;;;20.80;99.90;;;;;;5065588;28;20098;-75
2023/08/25 01:03:40;;;;;;;14.68;13.48;;;20.70;99.90;;;;;;5049546;28;20033;-74
2023/08/25 01:06:08;;;;;;;16.13;14.90;;;20.70;99.90;;;;;;5069433;28;20023;-74
2023/08/25 01:08:34;;;;;;;16.33;15.02;;;20.70;99.90;;;;;;5071027;28;20070;-74
2023/08/25 01:11:15;;;;;;;14.75;13.50;;;20.70;99.90;;;;;;5064911;28;20021;-75
2023/08/25 01:13:53;;;;;;;15.50;14.10;;;20.60;99.90;;;;;;5051841;28;20543;-75
2023/08/25 01:16:29;;;;;;;15.82;14.38;;;20.60;99.90;;;;;;5051932;28;20070;-75
2023/08/25 01:18:56;;;;;;;15.65;14.25;;;20.60;99.90;;;;;;5052040;28;20025;-74
2023/08/25 01:21:22;;;;;;;14.48;13.20;;;20.60;99.90;;;;;;5051499;28;20416;-74
2023/08/25 01:24:10;;;;;;;15.18;13.82;;;20.60;99.90;;;;;;5051652;28;20029;-74
2023/08/25 01:26:37;;;;;;;17.85;16.30;;;20.50;99.90;;;;;;5051492;28;20056;-74
2023/08/25 01:29:02;;;;;;;20.38;18.63;;;20.50;99.90;;;;;;5070689;28;20024;-74
2023/08/25 01:31:29;;;;;;;16.70;15.25;;;20.50;99.90;;;;;;5056614;28;20044;-75
2023/08/25 01:33:55;;;;;;;16.55;15.25;;;20.50;99.90;;;;;;5050890;28;20496;-74
2023/08/25 01:36:30;;;;;;;18.13;16.42;;;20.50;99.90;;;;;;5050787;28;20025;-74
2023/08/25 01:39:08;;;;;;;18.92;17.40;;;20.50;99.90;;;;;;5050507;28;20060;-74
2023/08/25 01:41:47;;;;;;;18.20;16.67;;;20.50;99.90;;;;;;5050933;28;20036;-74
2023/08/25 01:44:16;;;;;;;21.63;19.73;;;20.60;99.90;;;;;;5050831;28;20032;-74
2023/08/25 01:46:49;;;;;;;22.15;20.17;;;20.60;99.90;;;;;;5051093;28;20057;-74
2023/08/25 01:49:17;;;;;;;22.70;20.67;;;20.60;99.90;;;;;;5051976;28;20025;-75
2023/08/25 01:51:44;;;;;;;24.02;21.83;;;20.60;99.90;;;;;;5052821;28;20343;-74
2023/08/25 01:54:10;;;;;;;20.67;18.85;;;20.70;99.90;;;;;;5049639;28;20167;-74
2023/08/25 01:56:36;;;;;;;23.85;21.80;;;20.70;99.90;;;;;;5059172;28;20025;-74
2023/08/25 01:59:02;;;;;;;28.02;25.33;;;20.80;99.90;;;;;;5062095;28;20040;-75
2023/08/25 02:01:30;;;;;;;24.80;22.75;;;20.80;99.90;;;;;;5068836;28;20077;-74
2023/08/25 02:03:56;;;;;;;23.38;21.05;;;20.90;99.90;;;;;;5069214;28;20370;-74
2023/08/25 02:06:22;;;;;;;24.08;21.98;;;20.90;99.90;;;;;;5066911;28;20024;-74
2023/08/25 02:08:47;;;;;;;25.08;23.08;;;21.00;99.90;;;;;;5063255;28;20169;-74
2023/08/25 02:11:13;;;;;;;25.67;23.48;;;21.00;99.90;;;;;;5068766;28;20021;-74
2023/08/25 02:13:39;;;;;;;25.08;22.80;;;21.00;99.90;;;;;;5058536;28;20490;-74
2023/08/25 02:16:04;;;;;;;22.35;20.35;;;21.00;99.90;;;;;;5069068;28;20141;-74
2023/08/25 02:18:30;;;;;;;22.17;20.38;;;21.10;99.90;;;;;;5068997;28;20016;-75
2023/08/25 02:20:58;;;;;;;22.90;20.73;;;21.00;99.90;;;;;;5069477;28;20032;-74
2023/08/25 02:23:24;;;;;;;21.33;19.63;;;21.10;99.90;;;;;;5067888;28;20135;-74
2023/08/25 02:25:50;;;;;;;22.70;20.70;;;21.10;99.90;;;;;;5064282;28;20123;-74
2023/08/25 02:28:16;;;;;;;23.02;21.13;;;21.20;99.90;;;;;;5068176;28;20037;-74
2023/08/25 02:30:41;;;;;;;20.83;18.92;;;21.20;99.90;;;;;;5067793;28;20051;-74
2023/08/25 02:33:07;;;;;;;23.75;21.40;;;21.20;99.90;;;;;;5062390;28;20039;-75
2023/08/25 02:35:33;;;;;;;22.60;20.48;;;21.20;99.90;;;;;;5068892;28;20035;-74
2023/08/25 02:38:06;;;;;;;23.25;21.15;;;21.30;99.90;;;;;;5067159;28;20025;-74
2023/08/25 02:40:33;;;;;;;21.55;19.70;;;21.30;99.90;;;;;;5068476;28;20486;-74
2023/08/25 02:43:06;;;;;;;22.85;20.75;;;21.30;99.90;;;;;;5067086;28;20525;-74
2023/08/25 02:45:35;;;;;;;24.02;21.83;;;21.30;99.90;;;;;;5068390;28;20032;-74
2023/08/25 02:48:01;;;;;;;24.65;22.33;;;21.30;99.90;;;;;;5066941;28;20036;-74
2023/08/25 02:50:27;;;;;;;22.92;21.05;;;21.30;99.90;;;;;;5049628;28;20466;-74
2023/08/25 02:52:53;;;;;;;28.73;25.90;;;21.30;99.90;;;;;;5048518;28;20068;-75
2023/08/25 02:55:20;;;;;;;24.13;22.23;;;21.30;99.90;;;;;;5049831;28;20493;-74
2023/08/25 02:57:47;;;;;;;27.27;24.88;;;21.30;99.90;;;;;;5049403;28;20032;-74
2023/08/25 03:00:20;;;;;;;21.83;19.92;;;21.40;99.90;;;;;;5049483;28;20032;-75
2023/08/25 03:02:47;;;;;;;22.98;20.85;;;21.40;99.90;;;;;;5049965;28;20489;-74
2023/08/25 03:05:13;;;;;;;23.23;20.95;;;21.40;99.90;;;;;;5049356;28;20480;-74
2023/08/25 03:07:38;;;;;;;26.80;24.35;;;21.40;99.90;;;;;;5048728;28;20029;-74
2023/08/25 03:10:05;;;;;;;25.13;22.95;;;21.40;99.90;;;;;;5049371;28;20029;-75
2023/08/25 03:12:30;;;;;;;26.58;24.08;;;21.40;99.90;;;;;;5049289;28;20102;-74
2023/08/25 03:14:56;;;;;;;25.50;23.15;;;21.40;99.90;;;;;;5049320;28;20029;-74
2023/08/25 03:17:22;;;;;;;25.52;23.25;;;21.40;99.90;;;;;;5049287;28;20089;-74
2023/08/25 03:19:48;;;;;;;26.13;23.63;;;21.40;99.90;;;;;;5049224;28;20025;-74
2023/08/25 03:22:14;;;;;;;24.52;22.25;;;21.40;99.90;;;;;;5048596;28;20017;-74
2023/08/25 03:24:40;;;;;;;30.92;28.23;;;21.40;99.90;;;;;;5048966;28;20024;-74
2023/08/25 03:27:05;;;;;;;31.13;28.45;;;21.40;99.90;;;;;;5047611;28;20025;-74
2023/08/25 03:29:33;;;;;;;28.35;25.58;;;21.40;99.90;;;;;;5048737;28;20029;-75
2023/08/25 03:32:00;;;;;;;28.83;26.38;;;21.40;99.90;;;;;;5066650;28;20024;-74
2023/08/25 03:34:25;;;;;;;27.00;24.60;;;21.40;99.90;;;;;;5060313;28;20481;-75
2023/08/25 03:36:51;;;;;;;25.98;23.48;;;21.40;99.90;;;;;;5053606;28;20111;-75
2023/08/25 03:39:18;;;;;;;26.48;24.15;;;21.40;99.90;;;;;;5068414;28;20086;-75
2023/08/25 03:41:44;;;;;;;26.23;23.80;;;21.40;99.90;;;;;;5068273;28;20024;-74
2023/08/25 03:44:10;;;;;;;27.58;24.73;;;21.40;99.90;;;;;;5056368;28;20060;-74
2023/08/25 03:46:36;;;;;;;28.80;26.25;;;21.40;99.90;;;;;;5053342;28;20059;-74
2023/08/25 03:49:02;;;;;;;27.50;25.23;;;21.40;99.90;;;;;;5051004;28;20028;-74
2023/08/25 03:51:28;;;;;;;31.65;28.48;;;21.50;99.90;;;;;;5047837;28;20065;-74
2023/08/25 03:53:53;;;;;;;29.20;26.52;;;21.50;99.90;;;;;;5046714;28;20528;-74
2023/08/25 03:56:19;;;;;;;30.30;27.42;;;21.50;99.90;;;;;;5048121;28;20062;-74
2023/08/25 03:58:45;;;;;;;29.92;27.23;;;21.50;99.90;;;;;;5048386;28;20437;-75
2023/08/25 04:01:11;;;;;;;27.58;25.15;;;21.50;99.90;;;;;;5061295;28;20036;-75
2023/08/25 04:03:36;;;;;;;29.60;26.90;;;21.50;99.90;;;;;;5047847;28;20033;-75
2023/08/25 04:06:02;;;;;;;28.58;25.98;;;21.50;99.90;;;;;;5053105;28;20020;-76
2023/08/25 04:08:28;;;;;;;28.88;25.98;;;21.50;99.90;;;;;;5055975;28;20470;-75
2023/08/25 04:10:53;;;;;;;28.25;25.33;;;21.50;99.90;;;;;;5053050;28;20025;-74
2023/08/25 04:13:19;;;;;;;30.27;27.58;;;21.50;99.90;;;;;;5060816;28;20439;-74
2023/08/25 04:15:52;;;;;;;31.38;28.50;;;21.50;99.90;;;;;;5067912;28;20044;-74
2023/08/25 04:18:18;;;;;;;34.33;30.70;;;21.50;99.90;;;;;;5064044;28;20032;-74
2023/08/25 04:20:43;;;;;;;30.42;27.40;;;21.50;99.90;;;;;;5067874;28;20029;-74
2023/08/25 04:23:09;;;;;;;30.73;27.83;;;21.50;99.90;;;;;;5067617;28;20028;-74
2023/08/25 04:25:34;;;;;;;31.83;29.08;;;21.50;99.90;;;;;;5065547;28;20032;-74
2023/08/25 04:28:00;;;;;;;33.03;30.02;;;21.50;99.90;;;;;;5061512;28;20108;-74
2023/08/25 04:30:26;;;;;;;30.52;27.55;;;21.50;99.90;;;;;;5066931;28;20050;-75
2023/08/25 04:32:52;;;;;;;27.27;24.80;;;21.60;99.90;;;;;;5062287;28;20478;-74
2023/08/25 04:35:18;;;;;;;29.13;26.27;;;21.60;99.90;;;;;;5066787;28;20025;-74
2023/08/25 04:37:47;;;;;;;28.83;26.27;;;21.60;99.90;;;;;;5064437;28;20025;-75
2023/08/25 04:40:16;;;;;;;28.38;25.67;;;21.50;99.90;;;;;;5070366;28;20470;-75
2023/08/25 04:42:42;;;;;;;27.95;25.45;;;21.60;99.90;;;;;;5068590;28;20028;-74
2023/08/25 04:45:09;;;;;;;32.90;29.48;;;21.60;99.90;;;;;;5069509;28;20021;-74
2023/08/25 04:47:35;;;;;;;34.70;31.35;;;21.60;99.90;;;;;;5068182;28;20147;-75
2023/08/25 04:50:03;;;;;;;31.65;28.35;;;21.60;99.90;;;;;;5064665;28;20464;-74
2023/08/25 04:52:33;;;;;;;32.10;28.90;;;21.60;99.90;;;;;;5051709;28;20385;-75
2023/08/25 04:54:58;;;;;;;29.17;26.20;;;21.60;99.90;;;;;;5039295;28;20037;-74
2023/08/25 04:57:24;;;;;;;31.20;28.27;;;21.60;99.90;;;;;;5051237;28;20086;-75
2023/08/25 04:59:49;;;;;;;29.00;26.20;;;21.60;99.90;;;;;;5051706;28;20048;-74
2023/08/25 05:02:17;;;;;;;30.65;27.63;;;21.60;99.90;;;;;;5050153;28;20028;-75
2023/08/25 05:04:42;;;;;;;29.20;26.65;;;21.60;99.90;;;;;;5051911;28;20021;-75
2023/08/25 05:07:08;;;;;;;33.78;30.27;;;21.70;99.90;;;;;;5050736;28;20029;-75
2023/08/25 05:09:34;;;;;;;29.63;27.00;;;21.70;99.90;;;;;;5071303;28;20032;-74
2023/08/25 05:11:59;;;;;;;32.22;29.00;;;21.70;99.90;;;;;;5070703;28;20538;-74
2023/08/25 05:14:25;;;;;;;34.78;31.35;;;21.70;99.90;;;;;;5070676;28;20024;-75
2023/08/25 05:16:51;;;;;;;33.65;30.38;;;21.70;99.90;;;;;;5069603;28;20025;-74
2023/08/25 05:19:16;;;;;;;32.63;29.60;;;21.60;99.90;;;;;;5070736;28;20094;-75
2023/08/25 05:21:42;;;;;;;32.55;29.58;;;21.70;99.90;;;;;;5070159;28;20504;-74
2023/08/25 05:24:19;;;;;;;31.27;28.08;;;21.70;99.90;;;;;;5069625;28;20016;-74
2023/08/25 05:26:47;;;;;;;28.45;25.70;;;21.70;99.90;;;;;;5063341;28;20081;-74
2023/08/25 05:29:14;;;;;;;31.95;28.77;;;21.70;99.90;;;;;;5064942;28;20300;-75
2023/08/25 05:31:40;;;;;;;30.52;27.33;;;21.80;99.90;;;;;;5062456;28;20072;-75
2023/08/25 05:34:06;;;;;;;29.40;26.77;;;21.80;99.90;;;;;;5048683;28;20025;-74
2023/08/25 05:36:31;;;;;;;30.88;28.05;;;21.80;99.90;;;;;;5049901;28;20037;-75
2023/08/25 05:38:57;;;;;;;34.00;30.40;;;21.80;99.90;;;;;;5052074;28;20821;-74
2023/08/25 05:41:22;;;;;;;33.80;30.30;;;21.90;99.90;;;;;;5049190;28;20095;-74
2023/08/25 05:43:48;;;;;;;38.13;34.05;;;21.80;99.90;;;;;;5055526;28;20714;-74
2023/08/25 05:46:13;;;;;;;34.38;31.15;;;21.90;99.90;;;;;;5059982;28;20024;-74
2023/08/25 05:48:39;;;;;;;33.85;30.35;;;21.90;99.90;;;;;;5063716;28;20029;-74
2023/08/25 05:51:05;;;;;;;35.33;32.22;;;22.00;99.90;;;;;;5052541;28;20149;-75
2023/08/25 05:53:30;;;;;;;33.30;30.10;;;22.10;99.90;;;;;;5049408;28;20049;-74
2023/08/25 05:55:57;;;;;;;33.92;30.55;;;22.10;99.90;;;;;;5058117;28;20028;-74
2023/08/25 05:58:22;;;;;;;33.50;29.90;;;22.10;99.90;;;;;;5055396;28;20024;-74
2023/08/25 06:00:48;;;;;;;41.42;37.15;;;22.10;99.90;;;;;;5059365;28;20032;-74
2023/08/25 06:03:16;;;;;;;41.45;34.53;;;22.10;99.90;;;;;;5065145;28;20016;-74
2023/08/25 06:05:42;;;;;;;32.65;28.60;;;22.20;99.90;;;;;;5049497;28;20437;-74
2023/08/25 06:08:07;;;;;;;33.90;30.70;;;22.20;99.90;;;;;;5049792;28;20496;-74
2023/08/25 06:10:33;;;;;;;29.90;26.98;;;22.30;99.90;;;;;;5049771;28;20197;-74
2023/08/25 06:12:59;;;;;;;34.50;31.10;;;22.30;99.90;;;;;;5048659;28;20031;-74
2023/08/25 06:15:26;;;;;;;36.80;33.17;;;22.20;99.90;;;;;;5061263;28;20078;-74
2023/08/25 06:17:51;;;;;;;31.70;28.65;;;22.20;99.90;;;;;;5057954;28;20063;-74
2023/08/25 06:20:17;;;;;;;34.65;31.30;;;22.20;99.90;;;;;;5068453;28;20446;-74
2023/08/25 06:22:43;;;;;;;38.00;34.40;;;22.20;99.90;;;;;;5068047;28;20024;-74
2023/08/25 06:25:09;;;;;;;35.60;32.05;;;22.30;99.90;;;;;;5069414;28;20024;-74
2023/08/25 06:27:35;;;;;;;29.85;26.90;;;22.20;99.90;;;;;;5068708;28;20067;-74
2023/08/25 06:30:02;;;;;;;34.53;30.90;;;22.20;99.90;;;;;;5064059;28;20025;-74
2023/08/25 06:32:28;;;;;;;35.38;32.03;;;22.20;99.90;;;;;;5069048;28;20392;-74
2023/08/25 06:34:54;;;;;;;36.00;32.45;;;22.20;99.90;;;;;;5069381;28;20055;-74
2023/08/25 06:37:20;;;;;;;36.53;33.13;;;22.20;99.90;;;;;;5069296;28;20020;-74
2023/08/25 06:39:47;;;;;;;35.28;31.77;;;22.20;99.90;;;;;;5057001;28;20048;-74
2023/08/25 06:42:13;;;;;;;39.42;35.25;;;22.20;99.90;;;;;;5051820;28;20025;-74
2023/08/25 06:44:40;;;;;;;41.95;37.80;;;22.20;99.90;;;;;;5048783;28;20033;-75
2023/08/25 06:47:06;;;;;;;40.75;36.72;;;22.20;99.90;;;;;;5049248;28;20097;-74
2023/08/25 06:49:31;;;;;;;47.08;42.20;;;22.20;99.90;;;;;;5049422;28;20113;-74
2023/08/25 06:51:57;;;;;;;53.83;48.25;;;22.20;99.90;;;;;;5057769;28;20024;-74
2023/08/25 06:54:24;;;;;;;58.17;52.55;;;22.20;99.90;;;;;;5068329;28;20056;-74
2023/08/25 06:56:50;;;;;;;68.72;61.70;;;22.20;99.90;;;;;;5049870;28;20043;-74
2023/08/25 06:59:16;;;;;;;68.78;61.80;;;22.20;99.90;;;;;;5058097;28;20037;-74
2023/08/25 07:01:42;;;;;;;69.05;62.20;;;22.20;99.90;;;;;;5044633;28;20029;-74
2023/08/25 07:04:07;;;;;;;71.35;64.80;;;22.20;99.90;;;;;;5067132;28;20498;-74
2023/08/25 07:06:33;;;;;;;74.95;67.53;;;22.20;99.90;;;;;;5067843;28;20032;-74
2023/08/25 07:08:58;;;;;;;68.55;61.67;;;22.20;99.90;;;;;;5065893;28;20052;-74
2023/08/25 07:11:26;;;;;;;71.97;64.90;;;22.20;99.90;;;;;;5063412;28;20484;-74
2023/08/25 07:13:52;;;;;;;69.88;62.53;;;22.20;99.90;;;;;;5065869;28;20092;-74
2023/08/25 07:16:17;;;;;;;64.20;57.75;;;22.10;99.90;;;;;;5067925;28;20032;-74
2023/08/25 07:18:43;;;;;;;61.75;55.70;;;22.10;99.90;;;;;;5066349;28;20032;-74
2023/08/25 07:21:09;;;;;;;44.63;40.13;;;22.10;99.90;;;;;;5059745;28;20025;-74
2023/08/25 07:23:35;;;;;;;49.75;44.53;;;22.10;99.90;;;;;;5063408;28;20040;-74
2023/08/25 07:26:01;;;;;;;42.88;38.03;;;22.10;99.90;;;;;;5053910;28;20502;-75
2023/08/25 07:28:26;;;;;;;42.95;38.42;;;22.00;99.90;;;;;;5041085;28;20036;-74
2023/08/25 07:30:52;;;;;;;44.97;40.20;;;22.00;99.90;;;;;;5055918;28;20031;-74
2023/08/25 07:33:17;;;;;;;41.55;37.08;;;22.00;99.90;;;;;;5062043;28;20428;-75
2023/08/25 07:35:43;;;;;;;31.95;28.52;;;22.00;99.90;;;;;;5057034;28;20087;-74
2023/08/25 07:38:10;;;;;;;36.30;32.13;;;22.00;99.90;;;;;;5057895;28;20056;-74
2023/08/25 07:40:37;;;;;;;40.05;35.85;;;22.00;99.90;;;;;;5061174;28;20082;-75
2023/08/25 07:43:03;;;;;;;36.47;32.67;;;22.00;99.90;;;;;;5057481;28;20035;-74
2023/08/25 07:45:30;;;;;;;36.80;32.95;;;22.00;99.90;;;;;;5057909;28;20032;-74
2023/08/25 07:47:58;;;;;;;33.30;30.00;;;22.00;99.90;;;;;;5050069;28;20021;-74
2023/08/25 07:50:24;;;;;;;37.88;33.30;;;22.00;99.90;;;;;;5048319;28;20021;-74
2023/08/25 07:52:50;;;;;;;38.80;34.85;;;22.00;99.90;;;;;;5051030;28;20500;-74
2023/08/25 07:55:16;;;;;;;39.58;35.38;;;22.10;99.90;;;;;;5058698;28;20029;-74
2023/08/25 07:57:42;;;;;;;37.75;33.75;;;22.10;99.90;;;;;;5047563;28;20451;-74
2023/08/25 08:00:14;;;;;;;39.63;35.33;;;22.00;99.90;;;;;;5048338;28;20037;-74
2023/08/25 08:02:40;;;;;;;41.50;37.25;;;22.00;99.90;;;;;;5048981;28;20014;-74
2023/08/25 08:05:06;;;;;;;37.33;33.40;;;22.00;99.90;;;;;;5048537;28;20017;-74
2023/08/25 08:07:32;;;;;;;37.00;32.85;;;22.00;99.90;;;;;;5046758;28;20052;-74
2023/08/25 08:09:57;;;;;;;38.22;32.17;;;21.90;99.90;;;;;;5047979;28;20067;-74
2023/08/25 08:12:23;;;;;;;34.63;31.17;;;21.90;99.90;;;;;;5047982;28;20021;-74
2023/08/25 08:14:49;;;;;;;36.60;32.92;;;21.90;99.90;;;;;;5048636;28;20029;-74
2023/08/25 08:17:14;;;;;;;34.97;31.35;;;21.90;99.90;;;;;;5063200;28;20036;-75
2023/08/25 08:19:40;;;;;;;33.20;29.90;;;21.80;99.90;;;;;;5061998;28;20029;-74
2023/08/25 08:22:06;;;;;;;52.63;37.08;;;21.80;99.90;;;;;;5056604;28;20031;-75
2023/08/25 08:24:33;;;;;;;63.67;35.35;;;21.80;99.90;;;;;;5058511;28;20374;-73
2023/08/25 08:26:59;;;;;;;48.25;29.67;;;21.80;99.90;;;;;;5056116;28;20052;-73
2023/08/25 08:29:25;;;;;;;43.80;28.90;;;21.80;99.90;;;;;;5060872;28;20438;-73
2023/08/25 08:31:51;;;;;;;52.78;37.25;;;21.80;99.90;;;;;;5053418;28;20017;-73
2023/08/25 08:34:16;;;;;;;38.05;33.70;;;21.80;99.90;;;;;;5057940;28;20467;-73
2023/08/25 08:36:42;;;;;;;41.58;33.10;;;21.70;99.90;;;;;;5054556;28;20037;-73
2023/08/25 08:39:07;;;;;;;47.30;36.22;;;21.70;99.90;;;;;;5060186;28;20024;-74
2023/08/25 08:41:34;;;;;;;46.92;38.33;;;21.80;99.90;;;;;;5058354;28;20021;-73
2023/08/25 08:44:01;;;;;;;36.88;32.90;;;21.80;99.90;;;;;;5057030;28;20028;-73
2023/08/25 08:46:30;;;;;;;37.25;33.20;;;21.90;99.90;;;;;;5058363;28;20021;-72
2023/08/25 08:48:57;;;;;;;40.80;35.83;;;21.90;99.90;;;;;;5060945;28;20021;-73
2023/08/25 08:51:24;;;;;;;37.30;33.28;;;21.90;99.90;;;;;;5065796;28;20534;-73
2023/08/25 08:53:52;;;;;;;35.05;30.92;;;22.00;99.90;;;;;;5060829;28;20102;-72
2023/08/25 08:56:18;;;;;;;45.80;35.67;;;21.90;99.90;;;;;;5058662;28;20124;-73
2023/08/25 08:58:44;;;;;;;41.30;36.80;;;21.90;99.90;;;;;;5046197;28;20074;-73
2023/08/25 09:01:10;;;;;;;41.95;36.55;;;21.80;99.90;;;;;;5046472;28;20029;-73
2023/08/25 09:03:38;;;;;;;41.55;34.65;;;21.80;99.90;;;;;;5047751;28;20017;-73
2023/08/25 09:06:04;;;;;;;35.92;32.10;;;21.80;99.90;;;;;;5047900;28;20014;-74
2023/08/25 09:08:32;;;;;;;34.72;30.98;;;21.80;99.90;;;;;;5047338;28;20029;-73
2023/08/25 09:11:00;;;;;;;31.80;27.33;;;21.70;99.90;;;;;;5076651;28;20045;-74
2023/08/25 09:13:25;;;;;;;31.98;28.30;;;21.70;99.90;;;;;;5051298;28;20482;-74
2023/08/25 09:15:54;;;;;;;29.83;27.02;;;21.80;99.90;;;;;;5052665;28;20030;-73
2023/08/25 09:18:20;;;;;;;32.38;29.15;;;21.80;99.90;;;;;;5063631;28;20534;-73
2023/08/25 09:20:46;;;;;;;32.13;28.95;;;21.90;99.90;;;;;;5060807;28;20107;-74
2023/08/25 09:23:11;;;;;;;33.00;29.27;;;21.90;99.90;;;;;;5049374;28;20074;-74
2023/08/25 09:25:41;;;;;;;26.83;24.35;;;21.90;99.90;;;;;;5052426;28;20075;-74
2023/08/25 09:28:06;;;;;;;24.75;22.33;;;22.00;99.90;;;;;;5055723;28;20078;-73
2023/08/25 09:30:37;;;;;;;27.70;25.00;;;22.00;99.90;;;;;;5054143;28;20439;-73
2023/08/25 09:33:10;;;;;;;24.88;22.58;;;22.00;99.90;;;;;;5055623;28;20086;-74
2023/08/25 09:35:36;;;;;;;;;;;22.00;99.90;;;;;;5052350;28;20063;-74
2023/08/25 09:38:02;;;;;;;22.67;20.45;;;22.00;99.90;;;;;;5059014;28;20727;-74
2023/08/25 09:40:29;;;;;;;22.40;20.23;;;21.90;99.90;;;;;;5054263;28;20119;-74
2023/08/25 09:43:02;;;;;;;23.88;21.63;;;22.00;99.90;;;;;;5058553;28;20024;-74
2023/08/25 09:45:28;;;;;;;19.77;17.90;;;21.90;99.90;;;;;;5058244;28;20016;-74
2023/08/25 09:48:13;;;;;;;15.95;14.55;;;21.90;99.90;;;;;;5055337;28;20032;-74
2023/08/25 09:50:43;;;;;;;19.40;17.60;;;21.90;99.90;;;;;;5042455;28;20162;-74
2023/08/25 09:53:12;;;;;;;20.02;17.92;;;21.90;99.90;;;;;;5060517;28;20442;-74
2023/08/25 09:55:38;;;;;;;19.00;17.40;;;21.90;99.90;;;;;;5050534;28;20477;-74
2023/08/25 09:58:06;;;;;;;17.42;15.82;;;21.90;99.90;;;;;;5055054;28;20043;-74
2023/08/25 10:00:36;;;;;;;17.95;16.38;;;21.90;99.90;;;;;;5061113;28;20477;-74
2023/08/25 10:03:10;;;;;;;16.05;14.68;;;22.00;99.90;;;;;;5056930;28;20044;-74
2023/08/25 10:05:37;;;;;;;15.73;14.32;;;22.00;99.90;;;;;;5064820;28;20048;-74
2023/08/25 10:08:02;;;;;;;13.23;11.93;;;22.00;99.90;;;;;;5064944;28;20060;-74
2023/08/25 10:10:35;;;;;;;12.95;11.80;;;22.00;99.90;;;;;;5062884;28;20110;-74
2023/08/25 10:13:03;;;;;;;13.68;12.57;;;22.00;99.90;;;;;;5063801;28;20032;-74
2023/08/25 10:15:31;;;;;;;13.05;12.02;;;22.00;99.90;;;;;;5063049;28;20025;-74
2023/08/25 10:18:02;;;;;;;15.90;14.50;;;21.90;99.90;;;;;;5064450;28;20031;-74
2023/08/25 10:20:29;;;;;;;13.73;12.57;;;21.80;99.90;;;;;;5078469;28;20484;-74
2023/08/25 10:22:57;;;;;;;12.98;11.77;;;21.80;99.90;;;;;;5065251;28;20103;-74
2023/08/25 10:25:28;;;;;;;17.10;15.63;;;21.80;99.90;;;;;;5059585;28;20017;-74
2023/08/25 10:27:55;;;;;;;14.25;12.95;;;22.00;99.90;;;;;;5058128;28;20021;-74
2023/08/25 10:30:22;;;;;;;18.88;17.27;;;22.20;99.90;;;;;;5062320;28;20441;-73
2023/08/25 10:33:04;;;;;;;14.07;12.98;;;22.40;99.90;;;;;;5066821;28;20024;-74
2023/08/25 10:35:40;;;;;;;17.13;15.73;;;22.60;99.90;;;;;;5064040;28;20024;-74
2023/08/25 10:38:25;;;;;;;15.00;13.80;;;22.90;99.90;;;;;;5062093;28;20182;-74
2023/08/25 10:41:09;;;;;;;13.30;12.13;;;23.10;99.90;;;;;;5070802;28;20382;-74
2023/08/25 10:43:37;;;;;;;11.10;10.30;;;23.20;99.90;;;;;;5038807;28;20538;-73
2023/08/25 10:46:09;;;;;;;15.52;14.13;;;23.30;99.90;;;;;;5049842;28;20083;-73
2023/08/25 10:48:40;;;;;;;11.50;10.60;;;23.40;99.90;;;;;;5050150;28;20021;-73
2023/08/25 10:51:10;;;;;;;10.57;9.70;;;23.40;99.90;;;;;;5049310;28;20051;-72
2023/08/25 10:53:44;;;;;;;10.13;9.32;;;23.50;99.90;;;;;;5048002;28;20452;-72
2023/08/25 10:56:16;;;;;;;9.00;8.32;;;23.60;99.90;;;;;;5048192;28;20349;-72
2023/08/25 10:58:43;;;;;;;8.25;7.55;;;23.70;99.90;;;;;;5049521;28;20223;-72
2023/08/25 11:01:10;;;;;;;6.07;5.60;;;23.70;99.90;;;;;;5050091;28;20086;-72
2023/08/25 11:03:47;;;;;;;5.50;5.00;;;23.80;99.90;;;;;;5050542;28;20025;-72
2023/08/25 11:06:47;;;;;;;7.20;6.45;;;23.80;99.90;;;;;;5049725;28;20028;-72
2023/08/25 11:09:19;;;;;;;6.10;5.60;;;23.80;99.90;;;;;;5051637;28;20046;-72
2023/08/25 11:11:45;;;;;;;7.85;7.15;;;23.80;99.90;;;;;;5050398;28;20025;-73
2023/08/25 11:14:13;;;;;;;6.95;6.45;;;23.70;99.90;;;;;;5048688;28;20474;-72
2023/08/25 11:16:40;;;;;;;9.88;9.07;;;23.80;99.90;;;;;;5051177;28;20044;-73
2023/08/25 11:19:09;;;;;;;8.80;8.02;;;23.80;99.90;;;;;;5049869;28;20028;-72
2023/08/25 11:21:35;;;;;;;10.32;9.52;;;23.70;99.90;;;;;;5054222;28;20054;-72
2023/08/25 11:24:01;;;;;;;11.52;10.63;;;23.70;99.90;;;;;;5051489;28;20031;-72
2023/08/25 11:26:26;;;;;;;10.98;10.07;;;23.50;99.90;;;;;;5054557;28;20029;-73
2023/08/25 11:28:54;;;;;;;12.93;12.02;;;23.50;99.90;;;;;;5050377;28;20432;-73
2023/08/25 11:31:21;;;;;;;11.25;10.30;;;23.40;99.90;;;;;;5053667;28;20117;-73
2023/08/25 11:33:48;;;;;;;13.52;12.55;;;23.40;99.90;;;;;;5034294;28;20848;-73
2023/08/25 11:36:16;;;;;;;12.30;11.27;;;23.40;99.90;;;;;;5047766;28;20021;-72
2023/08/25 11:38:46;;;;;;;12.68;11.60;;;23.50;99.90;;;;;;5048458;28;20033;-72
2023/08/25 11:41:14;;;;;;;13.77;12.57;;;23.70;99.90;;;;;;5048202;28;20160;-73
2023/08/25 11:43:39;;;;;;;12.25;11.25;;;23.90;99.90;;;;;;5048663;28;20030;-73
2023/08/25 11:46:05;;;;;;;11.82;10.60;;;24.00;99.90;;;;;;5048077;28;20018;-74
2023/08/25 11:48:33;;;;;;;13.15;12.15;;;24.00;99.90;;;;;;5047591;28;20524;-73
2023/08/25 11:51:00;;;;;;;14.57;13.43;;;24.00;99.90;;;;;;5049153;28;20017;-73
2023/08/25 11:53:25;;;;;;;14.45;13.35;;;23.90;99.90;;;;;;5055458;28;20465;-73
2023/08/25 11:56:02;;;;;;;11.70;10.80;;;24.00;99.90;;;;;;5060620;28;20029;-73
2023/08/25 11:58:30;;;;;;;13.80;12.70;;;24.00;99.90;;;;;;5068305;28;20023;-73
2023/08/25 12:01:00;;;;;;;12.48;11.48;;;23.90;99.90;;;;;;5065706;28;20024;-73
2023/08/25 12:03:26;;;;;;;15.48;14.20;;;23.90;99.90;;;;;;5067719;28;20503;-74
2023/08/25 12:05:52;;;;;;;15.38;14.27;;;23.80;99.90;;;;;;5051649;28;20029;-73
2023/08/25 12:08:18;;;;;;;12.20;11.07;;;23.70;99.90;;;;;;5048801;28;20017;-73
2023/08/25 12:10:43;;;;;;;15.45;14.25;;;23.70;99.90;;;;;;5063393;28;20028;-73
2023/08/25 12:13:09;;;;;;;13.18;12.27;;;23.60;99.90;;;;;;5051741;28;20872;-73
2023/08/25 12:15:45;;;;;;;15.05;13.85;;;23.60;99.90;;;;;;5055250;28;20029;-73
2023/08/25 12:18:13;;;;;;;17.13;15.45;;;23.60;99.90;;;;;;5062509;28;20019;-73
2023/08/25 12:20:44;;;;;;;15.73;14.25;;;23.60;99.90;;;;;;5050372;28;20029;-74
2023/08/25 12:23:09;;;;;;;15.90;14.60;;;23.70;99.90;;;;;;5057814;28;20631;-74
2023/08/25 12:25:35;;;;;;;15.30;13.80;;;23.70;99.90;;;;;;5046893;28;20051;-73
2023/08/25 12:28:01;;;;;;;15.30;14.07;;;23.80;99.90;;;;;;5045123;28;20056;-73